Time;durP1;ratioP1;P1;durP2;ratioP2;P2;SDS_P1;SDS_P2;PMS_P1;PMS_P2;Temp;Humidity;BMP_temperature;BMP_pressure;BME280_temperature;BME280_humidity;BME280_pressure;Samples;Min_cycle;Max_cycle;Signal;HPM_P1;HPM_P2
2022/03/16 10:23:18;;;;;;;1.92;1.70;;;1.20;62.20;;;;;;1972985;73;25739;-52
2022/03/16 10:25:52;;;;;;;6.28;4.53;;;1.10;62.10;;;;;;1944234;73;21086;-53
2022/03/16 10:28:23;;;;;;;6.92;3.67;;;1.10;62.20;;;;;;1948337;73;21050;-49
2022/03/16 10:31:05;;;;;;;4.10;3.47;;;1.10;62.50;;;;;;1948389;73;21097;-47
2022/03/16 10:33:37;;;;;;;5.33;3.67;;;1.10;63.20;;;;;;1948470;73;21090;-47
2022/03/16 10:36:11;;;;;;;21.05;6.80;;;1.20;61.60;;;;;;1908344;75;21078;-52
2022/03/16 10:38:46;;;;;;;3.67;2.95;;;1.20;63.60;;;;;;1876247;76;21043;-48
2022/03/16 10:47:14;;;;;;;3.27;2.62;;;1.30;64.80;;;;;;1874373;76;21062;-47
2022/03/16 10:49:44;;;;;;;4.00;3.37;;;1.40;62.60;;;;;;1874057;76;21098;-46
2022/03/16 10:52:18;;;;;;;8.93;4.75;;;1.30;63.20;;;;;;1948401;73;21097;-47
2022/03/16 10:54:52;;;;;;;5.95;3.33;;;1.40;64.10;;;;;;1948554;73;21070;-49
2022/03/16 10:57:19;;;;;;;5.28;4.50;;;1.50;63.90;;;;;;1947158;73;21155;-51
2022/03/16 10:59:50;;;;;;;4.78;3.87;;;1.60;62.30;;;;;;1948249;73;21066;-47
2022/03/16 11:02:22;;;;;;;4.75;3.20;;;1.50;60.30;;;;;;1948695;73;21042;-47
2022/03/16 11:04:51;;;;;;;5.92;3.60;;;1.40;60.40;;;;;;1948508;73;21073;-52
2022/03/16 11:07:21;;;;;;;5.08;3.77;;;1.40;59.70;;;;;;1948329;73;21104;-53
2022/03/16 11:09:52;;;;;;;3.75;3.33;;;1.30;61.60;;;;;;1948387;73;21074;-53
2022/03/16 11:15:11;;;;;;;3.65;2.35;;;1.50;61.60;;;;;;1948353;73;21090;-48
2022/03/16 11:17:42;;;;;;;11.68;5.92;;;1.70;60.70;;;;;;1948546;73;21491;-48
2022/03/16 11:20:13;;;;;;;8.23;3.90;;;1.80;62.50;;;;;;1948189;73;21084;-50
2022/03/16 11:25:39;;;;;;;6.28;3.47;;;;;;;;;;1935832;74;21082;-52
2022/03/16 11:28:09;;;;;;;2.90;2.47;;;;;;;;;;1933589;74;21112;-51
2022/03/16 11:30:38;;;;;;;5.85;4.05;;;;;;;;;;1935556;74;21019;-46
2022/03/16 11:41:08;;;;;;;5.40;2.75;;;1.90;59.20;;;;;;1958241;72;25725;-56
2022/03/16 11:43:39;;;;;;;4.58;3.77;;;1.90;59.00;;;;;;1917875;74;21108;-55
2022/03/16 11:46:11;;;;;;;6.03;3.37;;;1.90;58.70;;;;;;1917941;75;21507;-56
2022/03/16 11:48:41;;;;;;;5.35;3.83;;;1.80;60.50;;;;;;1911976;73;21023;-52
2022/03/16 11:51:15;;;;;;;5.17;4.60;;;1.80;60.30;;;;;;1917822;75;21096;-47
2022/03/16 11:53:58;;;;;;;22.15;4.87;;;1.80;59.60;;;;;;1900515;75;21457;-49
2022/03/16 11:56:33;;;;;;;11.43;6.20;;;1.70;60.00;;;;;;1884560;76;21086;-51
2022/03/16 11:59:05;;;;;;;5.90;4.25;;;1.80;62.10;;;;;;1884302;75;21199;-52
2022/03/16 12:01:38;;;;;;;5.47;3.42;;;1.80;61.30;;;;;;1885269;76;21018;-54
2022/03/16 12:04:14;;;;;;;5.40;4.05;;;1.70;59.50;;;;;;1884851;75;21034;-49
2022/03/16 12:07:12;;;;;;;3.70;2.77;;;1.70;59.30;;;;;;1885113;76;21093;-51
2022/03/16 12:09:52;;;;;;;3.87;2.77;;;1.70;60.10;;;;;;1885098;75;21622;-50
2022/03/16 12:12:57;;;;;;;3.17;2.87;;;1.70;60.90;;;;;;1884890;76;21027;-47
2022/03/16 12:15:37;;;;;;;3.25;2.95;;;1.70;60.00;;;;;;1885157;76;20994;-49
2022/03/16 12:18:11;;;;;;;6.97;4.28;;;1.70;61.00;;;;;;1884873;76;21065;-52
2022/03/16 12:20:58;;;;;;;12.37;5.87;;;1.60;59.60;;;;;;1885096;76;21096;-53
2022/03/16 12:23:47;;;;;;;4.53;2.45;;;1.60;60.20;;;;;;1884964;76;21131;-51
2022/03/16 12:26:17;;;;;;;2.35;1.87;;;1.60;58.70;;;;;;1884946;76;21466;-53
2022/03/16 12:28:58;;;;;;;4.10;2.30;;;1.70;60.60;;;;;;1885267;75;21598;-50
2022/03/16 12:31:30;;;;;;;2.92;2.67;;;1.80;58.00;;;;;;1884857;75;21101;-48
2022/03/16 12:33:59;;;;;;;5.80;4.50;;;1.80;57.80;;;;;;1884960;76;21070;-48
2022/03/16 12:36:33;;;;;;;7.42;5.22;;;1.70;58.70;;;;;;1885123;76;21092;-47
2022/03/16 12:39:05;;;;;;;8.43;5.92;;;1.70;59.60;;;;;;1884946;76;21160;-52
2022/03/16 12:44:23;;;;;;;8.75;4.85;;;1.60;59.20;;;;;;1891433;76;21108;-50
2022/03/16 12:47:07;;;;;;;4.47;3.02;;;1.50;58.60;;;;;;1891017;76;21018;-51
2022/03/16 12:49:43;;;;;;;9.28;5.42;;;1.50;59.10;;;;;;1891289;76;21492;-50
2022/03/16 12:52:13;;;;;;;12.33;5.58;;;1.50;60.50;;;;;;1893015;74;21159;-51
2022/03/16 12:54:43;;;;;;;7.67;5.33;;;1.70;60.40;;;;;;1890807;76;21046;-51
2022/03/16 12:57:14;;;;;;;2.75;2.50;;;1.80;60.50;;;;;;1891033;76;21076;-51
2022/03/16 12:59:56;;;;;;;8.30;3.92;;;1.90;58.60;;;;;;1890699;76;21030;-48
2022/03/16 13:02:29;;;;;;;4.55;4.15;;;1.90;59.10;;;;;;1890784;76;21093;-47
2022/03/16 13:04:58;;;;;;;6.60;4.60;;;1.80;57.20;;;;;;1890773;75;21452;-49
2022/03/16 13:07:28;;;;;;;6.22;3.72;;;1.70;57.90;;;;;;1890902;76;21081;-47
2022/03/16 13:10:00;;;;;;;6.58;5.30;;;1.60;58.70;;;;;;1890845;76;21143;-53
2022/03/16 13:12:29;;;;;;;16.05;7.85;;;1.60;59.10;;;;;;1891023;76;21078;-48
2022/03/16 13:14:59;;;;;;;8.83;5.65;;;1.60;59.60;;;;;;1890863;76;21022;-50
2022/03/16 13:17:36;;;;;;;7.80;4.87;;;1.70;59.20;;;;;;1890809;76;21127;-48
2022/03/16 13:20:06;;;;;;;7.87;5.72;;;1.70;58.00;;;;;;1891123;76;21449;-49
2022/03/16 13:22:36;;;;;;;15.93;9.35;;;1.70;58.70;;;;;;1890839;75;21092;-47
2022/03/16 13:25:08;;;;;;;8.60;5.72;;;1.70;60.10;;;;;;1890830;76;21022;-47
2022/03/16 13:27:39;;;;;;;6.40;3.62;;;1.80;60.80;;;;;;1891090;76;21090;-51
2022/03/16 13:30:21;;;;;;;6.40;5.03;;;2.00;59.00;;;;;;1890901;76;21595;-51
2022/03/16 13:32:45;;;;;;;9.88;4.28;;;2.00;58.70;;;;;;1889060;75;21018;-54
2022/03/16 13:35:21;;;;;;;8.65;4.10;;;2.00;58.20;;;;;;1890919;76;21046;-47
2022/03/16 13:37:50;;;;;;;8.75;5.53;;;2.00;58.20;;;;;;1901278;74;21057;-50
2022/03/16 13:40:27;;;;;;;6.47;3.75;;;1.90;57.40;;;;;;1923860;74;21101;-50
2022/03/16 13:43:05;;;;;;;4.70;4.20;;;1.80;58.10;;;;;;1923994;74;21552;-49
2022/03/16 13:45:42;;;;;;;5.45;3.98;;;1.70;57.10;;;;;;1923587;74;21094;-55
2022/03/16 13:48:16;;;;;;;6.95;5.08;;;1.60;57.60;;;;;;1924064;74;21050;-54
2022/03/16 13:50:51;;;;;;;7.30;3.05;;;1.60;57.70;;;;;;1924191;74;21456;-51
2022/03/16 13:53:22;;;;;;;4.60;4.00;;;1.50;58.50;;;;;;1924099;74;21096;-49
2022/03/16 13:55:53;;;;;;;4.78;3.92;;;1.50;58.60;;;;;;1923920;74;21018;-49
2022/03/16 13:58:27;;;;;;;8.25;4.33;;;1.50;58.10;;;;;;1924002;74;21022;-48
2022/03/16 14:00:58;;;;;;;9.65;5.87;;;1.50;58.50;;;;;;1923757;74;21039;-52
2022/03/16 14:03:28;;;;;;;8.38;4.05;;;1.50;59.00;;;;;;1923858;74;21078;-53
2022/03/16 14:05:58;;;;;;;5.42;3.45;;;1.50;58.50;;;;;;1923965;74;21144;-48
2022/03/16 14:08:27;;;;;;;7.20;5.85;;;1.50;57.40;;;;;;1924002;74;21401;-48
2022/03/16 14:10:57;;;;;;;5.33;3.20;;;1.50;59.40;;;;;;1923962;74;21019;-51
2022/03/16 14:13:29;;;;;;;15.98;7.35;;;1.60;58.50;;;;;;1924122;74;20988;-51
2022/03/16 14:16:13;;;;;;;12.88;5.80;;;1.60;58.10;;;;;;1924086;74;21417;-47
2022/03/16 14:18:43;;;;;;;7.50;4.92;;;1.50;58.30;;;;;;1923994;74;21046;-49
2022/03/16 14:21:12;;;;;;;16.30;8.78;;;1.50;58.60;;;;;;1924134;74;21085;-48
2022/03/16 14:23:42;;;;;;;6.83;4.87;;;1.60;59.70;;;;;;1923953;74;21019;-50
2022/03/16 14:26:12;;;;;;;8.68;6.33;;;1.60;57.80;;;;;;1924023;74;21034;-49
2022/03/16 14:28:41;;;;;;;7.55;5.42;;;1.60;58.90;;;;;;1924210;74;21077;-50
2022/03/16 14:31:11;;;;;;;5.67;4.05;;;1.50;58.40;;;;;;1923963;74;21016;-47
2022/03/16 14:33:40;;;;;;;9.20;5.55;;;1.40;59.30;;;;;;1905970;74;21139;-48
